
<gpx xmlns="http://www.topografix.com/GPX/1/1" xmlns:gpxx="http://www.garmin.com/xmlschemas/GpxExtensions/v3" xmlns:xsi="http://www.w3.org/2001/XMLSchema-instance" version="1.1" creator="Adze - http://kobotsw.com/apps/adze" xsi:schemaLocation="http://www.topografix.com/GPX/1/1 http://www.topografix.com/GPX/1/1/gpx.xsd http://www.garmin.com/xmlschemas/GpxExtensions/v3 http://www.garmin.com/xmlschemas/GpxExtensionsv3.xsd">
    <metadata>
        <name>Untitled Document</name>
        <link href="http://www.garmin.com"></link>
        <time>2018-02-27T03:56:43.705Z</time>
    </metadata>
    <wpt lon="100.953633" lat="12.862566">
        <name>Huay Yai Homestay</name>
        <sym>Lodging</sym>
        <extensions>
            <gpxx:WaypointExtension xmlns:gpxx="http://www.garmin.com/xmlschemas/GpxExtensions/v3">
                <gpxx:DisplayMode>SymbolAndName</gpxx:DisplayMode>
            </gpxx:WaypointExtension>
        </extensions>
    </wpt>
    <wpt lon="100.962643" lat="12.861787">
        <ele>36.000000</ele>
        <name>Water Sat</name>
        <cmt>15-DEC-12 15:11:03</cmt>
        <desc>15-DEC-12 15:11:03</desc>
        <sym>Drinking Water</sym>
        <extensions>
            <gpxx:WaypointExtension xmlns:gpxx="http://www.garmin.com/xmlschemas/GpxExtensions/v3">
                <gpxx:DisplayMode>SymbolOnly</gpxx:DisplayMode>
            </gpxx:WaypointExtension>
        </extensions>
    </wpt>
    <trk>
        <name>Saturday</name>
        <extensions>
            <gpxx:TrackExtension xmlns:gpxx="http://www.garmin.com/xmlschemas/GpxExtensions/v3">
                <gpxx:DisplayColor>Red</gpxx:DisplayColor>
            </gpxx:TrackExtension>
        </extensions>
        <trkseg>
            <trkpt lon="100.953684" lat="12.862591">
                <ele>22.247559</ele>
                <time>2012-12-15T06:03:36Z</time>
            </trkpt>
            <trkpt lon="100.953764" lat="12.863859">
                <ele>25.612305</ele>
                <time>2012-12-15T06:04:06Z</time>
            </trkpt>
            <trkpt lon="100.953928" lat="12.865444">
                <ele>28.015503</ele>
                <time>2012-12-15T06:04:36Z</time>
            </trkpt>
            <trkpt lon="100.953482" lat="12.867091">
                <ele>29.457520</ele>
                <time>2012-12-15T06:05:06Z</time>
            </trkpt>
            <trkpt lon="100.953541" lat="12.868726">
                <ele>28.496216</ele>
                <time>2012-12-15T06:05:36Z</time>
            </trkpt>
            <trkpt lon="100.953623" lat="12.870216">
                <ele>37.628662</ele>
                <time>2012-12-15T06:06:06Z</time>
            </trkpt>
            <trkpt lon="100.952001" lat="12.873169">
                <ele>35.706055</ele>
                <time>2012-12-15T06:07:06Z</time>
            </trkpt>
            <trkpt lon="100.951551" lat="12.874776">
                <ele>33.783447</ele>
                <time>2012-12-15T06:07:36Z</time>
            </trkpt>
            <trkpt lon="100.949939" lat="12.875789">
                <ele>36.667481</ele>
                <time>2012-12-15T06:08:06Z</time>
            </trkpt>
            <trkpt lon="100.948733" lat="12.875814">
                <ele>37.628662</ele>
                <time>2012-12-15T06:08:36Z</time>
            </trkpt>
            <trkpt lon="100.948490" lat="12.874837">
                <ele>34.744873</ele>
                <time>2012-12-15T06:09:06Z</time>
            </trkpt>
            <trkpt lon="100.948497" lat="12.874908">
                <ele>28.976929</ele>
                <time>2012-12-15T06:09:36Z</time>
            </trkpt>
            <trkpt lon="100.948723" lat="12.875809">
                <ele>31.860718</ele>
                <time>2012-12-15T06:10:06Z</time>
            </trkpt>
            <trkpt lon="100.949335" lat="12.876577">
                <ele>32.822266</ele>
                <time>2012-12-15T06:10:36Z</time>
            </trkpt>
            <trkpt lon="100.949046" lat="12.877603">
                <ele>35.225464</ele>
                <time>2012-12-15T06:11:06Z</time>
            </trkpt>
            <trkpt lon="100.948980" lat="12.878596">
                <ele>35.706055</ele>
                <time>2012-12-15T06:11:36Z</time>
            </trkpt>
            <trkpt lon="100.949007" lat="12.879181">
                <ele>37.148071</ele>
                <time>2012-12-15T06:12:06Z</time>
            </trkpt>
            <trkpt lon="100.949332" lat="12.879495">
                <ele>40.032105</ele>
                <time>2012-12-15T06:12:36Z</time>
            </trkpt>
            <trkpt lon="100.949449" lat="12.880163">
                <ele>37.148071</ele>
                <time>2012-12-15T06:13:06Z</time>
            </trkpt>
            <trkpt lon="100.949337" lat="12.880583">
                <ele>44.838623</ele>
                <time>2012-12-15T06:13:36Z</time>
            </trkpt>
            <trkpt lon="100.949643" lat="12.880813">
                <ele>45.799927</ele>
                <time>2012-12-15T06:14:06Z</time>
            </trkpt>
            <trkpt lon="100.950360" lat="12.880510">
                <ele>45.319214</ele>
                <time>2012-12-15T06:14:36Z</time>
            </trkpt>
            <trkpt lon="100.951440" lat="12.880375">
                <ele>53.971191</ele>
                <time>2012-12-15T06:15:06Z</time>
            </trkpt>
            <trkpt lon="100.952068" lat="12.880427">
                <ele>53.009766</ele>
                <time>2012-12-15T06:15:36Z</time>
            </trkpt>
            <trkpt lon="100.952958" lat="12.879237">
                <ele>47.241821</ele>
                <time>2012-12-15T06:16:06Z</time>
            </trkpt>
            <trkpt lon="100.953967" lat="12.878797">
                <ele>44.358032</ele>
                <time>2012-12-15T06:16:36Z</time>
            </trkpt>
            <trkpt lon="100.954133" lat="12.878153">
                <ele>40.032105</ele>
                <time>2012-12-15T06:17:06Z</time>
            </trkpt>
            <trkpt lon="100.954379" lat="12.877960">
                <ele>40.512817</ele>
                <time>2012-12-15T06:17:36Z</time>
            </trkpt>
            <trkpt lon="100.954749" lat="12.877818">
                <ele>39.551269</ele>
                <time>2012-12-15T06:18:06Z</time>
            </trkpt>
            <trkpt lon="100.955173" lat="12.877754">
                <ele>37.628662</ele>
                <time>2012-12-15T06:18:36Z</time>
            </trkpt>
            <trkpt lon="100.955518" lat="12.877612">
                <ele>38.109375</ele>
                <time>2012-12-15T06:19:06Z</time>
            </trkpt>
            <trkpt lon="100.955923" lat="12.877575">
                <ele>39.070679</ele>
                <time>2012-12-15T06:19:36Z</time>
            </trkpt>
            <trkpt lon="100.956324" lat="12.877474">
                <ele>38.109375</ele>
                <time>2012-12-15T06:20:06Z</time>
            </trkpt>
            <trkpt lon="100.957200" lat="12.876935">
                <ele>35.706055</ele>
                <time>2012-12-15T06:20:36Z</time>
            </trkpt>
            <trkpt lon="100.957429" lat="12.877917">
                <ele>32.822266</ele>
                <time>2012-12-15T06:21:06Z</time>
            </trkpt>
            <trkpt lon="100.957776" lat="12.878296">
                <ele>35.225464</ele>
                <time>2012-12-15T06:21:36Z</time>
            </trkpt>
            <trkpt lon="100.958097" lat="12.878803">
                <ele>35.225464</ele>
                <time>2012-12-15T06:22:06Z</time>
            </trkpt>
            <trkpt lon="100.958751" lat="12.879685">
                <ele>34.744873</ele>
                <time>2012-12-15T06:22:36Z</time>
            </trkpt>
            <trkpt lon="100.959495" lat="12.879743">
                <ele>38.109375</ele>
                <time>2012-12-15T06:23:06Z</time>
            </trkpt>
            <trkpt lon="100.960408" lat="12.879737">
                <ele>40.512817</ele>
                <time>2012-12-15T06:23:36Z</time>
            </trkpt>
            <trkpt lon="100.961129" lat="12.879667">
                <ele>40.512817</ele>
                <time>2012-12-15T06:24:06Z</time>
            </trkpt>
            <trkpt lon="100.961557" lat="12.879639">
                <ele>42.435425</ele>
                <time>2012-12-15T06:24:36Z</time>
            </trkpt>
            <trkpt lon="100.961969" lat="12.879601">
                <ele>42.435425</ele>
                <time>2012-12-15T06:25:06Z</time>
            </trkpt>
            <trkpt lon="100.962267" lat="12.879568">
                <ele>42.435425</ele>
                <time>2012-12-15T06:25:36Z</time>
            </trkpt>
            <trkpt lon="100.962150" lat="12.879575">
                <ele>41.473999</ele>
                <time>2012-12-15T06:26:06Z</time>
            </trkpt>
            <trkpt lon="100.961940" lat="12.879598">
                <ele>38.109375</ele>
                <time>2012-12-15T06:26:36Z</time>
            </trkpt>
            <trkpt lon="100.961819" lat="12.879617">
                <ele>38.590088</ele>
                <time>2012-12-15T06:27:06Z</time>
            </trkpt>
            <trkpt lon="100.961809" lat="12.879623">
                <ele>40.032105</ele>
                <time>2012-12-15T06:27:36Z</time>
            </trkpt>
            <trkpt lon="100.961810" lat="12.879632">
                <ele>37.628662</ele>
                <time>2012-12-15T06:28:06Z</time>
            </trkpt>
            <trkpt lon="100.961813" lat="12.879628">
                <ele>38.590088</ele>
                <time>2012-12-15T06:28:36Z</time>
            </trkpt>
            <trkpt lon="100.961818" lat="12.879621">
                <ele>37.628662</ele>
                <time>2012-12-15T06:29:06Z</time>
            </trkpt>
            <trkpt lon="100.961824" lat="12.879615">
                <ele>38.109375</ele>
                <time>2012-12-15T06:29:36Z</time>
            </trkpt>
            <trkpt lon="100.962024" lat="12.879590">
                <ele>37.148071</ele>
                <time>2012-12-15T06:30:06Z</time>
            </trkpt>
            <trkpt lon="100.962310" lat="12.879563">
                <ele>38.109375</ele>
                <time>2012-12-15T06:30:36Z</time>
            </trkpt>
            <trkpt lon="100.962328" lat="12.879421">
                <ele>38.109375</ele>
                <time>2012-12-15T06:31:06Z</time>
            </trkpt>
            <trkpt lon="100.962333" lat="12.879455">
                <ele>37.148071</ele>
                <time>2012-12-15T06:31:36Z</time>
            </trkpt>
            <trkpt lon="100.962338" lat="12.879514">
                <ele>37.148071</ele>
                <time>2012-12-15T06:32:06Z</time>
            </trkpt>
            <trkpt lon="100.962044" lat="12.879595">
                <ele>38.590088</ele>
                <time>2012-12-15T06:32:36Z</time>
            </trkpt>
            <trkpt lon="100.961734" lat="12.879616">
                <ele>38.590088</ele>
                <time>2012-12-15T06:33:06Z</time>
            </trkpt>
            <trkpt lon="100.961431" lat="12.879627">
                <ele>39.070679</ele>
                <time>2012-12-15T06:33:36Z</time>
            </trkpt>
            <trkpt lon="100.961096" lat="12.879650">
                <ele>38.109375</ele>
                <time>2012-12-15T06:34:06Z</time>
            </trkpt>
            <trkpt lon="100.960412" lat="12.879714">
                <ele>37.628662</ele>
                <time>2012-12-15T06:34:36Z</time>
            </trkpt>
            <trkpt lon="100.960195" lat="12.880200">
                <ele>39.551269</ele>
                <time>2012-12-15T06:35:06Z</time>
            </trkpt>
            <trkpt lon="100.960311" lat="12.881090">
                <ele>39.551269</ele>
                <time>2012-12-15T06:35:36Z</time>
            </trkpt>
            <trkpt lon="100.960247" lat="12.881967">
                <ele>41.473999</ele>
                <time>2012-12-15T06:36:06Z</time>
            </trkpt>
            <trkpt lon="100.959350" lat="12.882038">
                <ele>44.358032</ele>
                <time>2012-12-15T06:36:36Z</time>
            </trkpt>
            <trkpt lon="100.958879" lat="12.882034">
                <ele>44.838623</ele>
                <time>2012-12-15T06:37:06Z</time>
            </trkpt>
            <trkpt lon="100.958264" lat="12.882070">
                <ele>43.877319</ele>
                <time>2012-12-15T06:37:36Z</time>
            </trkpt>
            <trkpt lon="100.957643" lat="12.882282">
                <ele>46.761231</ele>
                <time>2012-12-15T06:38:06Z</time>
            </trkpt>
            <trkpt lon="100.956732" lat="12.882224">
                <ele>46.761231</ele>
                <time>2012-12-15T06:38:36Z</time>
            </trkpt>
            <trkpt lon="100.956000" lat="12.882275">
                <ele>48.683960</ele>
                <time>2012-12-15T06:39:06Z</time>
            </trkpt>
            <trkpt lon="100.955275" lat="12.882771">
                <ele>53.009766</ele>
                <time>2012-12-15T06:39:36Z</time>
            </trkpt>
            <trkpt lon="100.954723" lat="12.883222">
                <ele>54.932373</ele>
                <time>2012-12-15T06:40:06Z</time>
            </trkpt>
            <trkpt lon="100.953961" lat="12.882902">
                <ele>57.816528</ele>
                <time>2012-12-15T06:40:36Z</time>
            </trkpt>
            <trkpt lon="100.953834" lat="12.882940">
                <ele>53.971191</ele>
                <time>2012-12-15T06:41:06Z</time>
            </trkpt>
            <trkpt lon="100.953636" lat="12.882817">
                <ele>54.932373</ele>
                <time>2012-12-15T06:41:36Z</time>
            </trkpt>
            <trkpt lon="100.953556" lat="12.882301">
                <ele>58.297119</ele>
                <time>2012-12-15T06:42:06Z</time>
            </trkpt>
            <trkpt lon="100.953420" lat="12.882033">
                <ele>60.219727</ele>
                <time>2012-12-15T06:42:36Z</time>
            </trkpt>
            <trkpt lon="100.953702" lat="12.883126">
                <ele>59.739136</ele>
                <time>2012-12-15T06:43:06Z</time>
            </trkpt>
            <trkpt lon="100.952497" lat="12.883087">
                <ele>61.661743</ele>
                <time>2012-12-15T06:43:36Z</time>
            </trkpt>
            <trkpt lon="100.950925" lat="12.883058">
                <ele>53.009766</ele>
                <time>2012-12-15T06:44:06Z</time>
            </trkpt>
            <trkpt lon="100.949871" lat="12.882917">
                <ele>49.164551</ele>
                <time>2012-12-15T06:44:36Z</time>
            </trkpt>
            <trkpt lon="100.948841" lat="12.882886">
                <ele>42.916016</ele>
                <time>2012-12-15T06:45:06Z</time>
            </trkpt>
            <trkpt lon="100.947665" lat="12.882211">
                <ele>37.148071</ele>
                <time>2012-12-15T06:45:36Z</time>
            </trkpt>
            <trkpt lon="100.946694" lat="12.881836">
                <ele>32.822266</ele>
                <time>2012-12-15T06:46:06Z</time>
            </trkpt>
            <trkpt lon="100.945471" lat="12.881533">
                <ele>30.418823</ele>
                <time>2012-12-15T06:46:36Z</time>
            </trkpt>
            <trkpt lon="100.945115" lat="12.880960">
                <ele>31.860718</ele>
                <time>2012-12-15T06:47:06Z</time>
            </trkpt>
            <trkpt lon="100.944886" lat="12.880591">
                <ele>28.496216</ele>
                <time>2012-12-15T06:47:36Z</time>
            </trkpt>
            <trkpt lon="100.945027" lat="12.878958">
                <ele>27.054321</ele>
                <time>2012-12-15T06:48:06Z</time>
            </trkpt>
            <trkpt lon="100.945617" lat="12.877124">
                <ele>26.573608</ele>
                <time>2012-12-15T06:48:36Z</time>
            </trkpt>
            <trkpt lon="100.944190" lat="12.876081">
                <ele>27.054321</ele>
                <time>2012-12-15T06:49:06Z</time>
            </trkpt>
            <trkpt lon="100.942831" lat="12.874982">
                <ele>26.092896</ele>
                <time>2012-12-15T06:49:36Z</time>
            </trkpt>
            <trkpt lon="100.942397" lat="12.874049">
                <ele>27.054321</ele>
                <time>2012-12-15T06:50:06Z</time>
            </trkpt>
            <trkpt lon="100.941696" lat="12.873616">
                <ele>29.457520</ele>
                <time>2012-12-15T06:50:36Z</time>
            </trkpt>
            <trkpt lon="100.940451" lat="12.875275">
                <ele>29.938110</ele>
                <time>2012-12-15T06:51:06Z</time>
            </trkpt>
            <trkpt lon="100.939461" lat="12.877018">
                <ele>29.457520</ele>
                <time>2012-12-15T06:51:36Z</time>
            </trkpt>
            <trkpt lon="100.938398" lat="12.878534">
                <ele>28.015503</ele>
                <time>2012-12-15T06:52:06Z</time>
            </trkpt>
            <trkpt lon="100.936969" lat="12.879668">
                <ele>25.131714</ele>
                <time>2012-12-15T06:52:36Z</time>
            </trkpt>
            <trkpt lon="100.935627" lat="12.880621">
                <ele>22.247559</ele>
                <time>2012-12-15T06:53:06Z</time>
            </trkpt>
            <trkpt lon="100.934084" lat="12.881750">
                <ele>17.921753</ele>
                <time>2012-12-15T06:53:36Z</time>
            </trkpt>
            <trkpt lon="100.932729" lat="12.882767">
                <ele>18.883057</ele>
                <time>2012-12-15T06:54:06Z</time>
            </trkpt>
            <trkpt lon="100.931651" lat="12.883575">
                <ele>22.728272</ele>
                <time>2012-12-15T06:54:36Z</time>
            </trkpt>
            <trkpt lon="100.930568" lat="12.884381">
                <ele>25.612305</ele>
                <time>2012-12-15T06:55:06Z</time>
            </trkpt>
            <trkpt lon="100.929438" lat="12.884963">
                <ele>27.534912</ele>
                <time>2012-12-15T06:55:36Z</time>
            </trkpt>
            <trkpt lon="100.928591" lat="12.885186">
                <ele>28.015503</ele>
                <time>2012-12-15T06:56:06Z</time>
            </trkpt>
            <trkpt lon="100.928343" lat="12.885247">
                <ele>29.938110</ele>
                <time>2012-12-15T06:56:36Z</time>
            </trkpt>
            <trkpt lon="100.927458" lat="12.885375">
                <ele>29.938110</ele>
                <time>2012-12-15T06:57:06Z</time>
            </trkpt>
            <trkpt lon="100.926689" lat="12.885307">
                <ele>28.976929</ele>
                <time>2012-12-15T06:57:36Z</time>
            </trkpt>
            <trkpt lon="100.926753" lat="12.884165">
                <ele>28.496216</ele>
                <time>2012-12-15T06:58:06Z</time>
            </trkpt>
            <trkpt lon="100.926913" lat="12.883526">
                <ele>27.054321</ele>
                <time>2012-12-15T06:58:36Z</time>
            </trkpt>
            <trkpt lon="100.926885" lat="12.883252">
                <ele>26.092896</ele>
                <time>2012-12-15T06:59:06Z</time>
            </trkpt>
            <trkpt lon="100.927340" lat="12.882288">
                <ele>26.092896</ele>
                <time>2012-12-15T06:59:36Z</time>
            </trkpt>
            <trkpt lon="100.928373" lat="12.882479">
                <ele>27.054321</ele>
                <time>2012-12-15T07:00:06Z</time>
            </trkpt>
            <trkpt lon="100.928871" lat="12.882026">
                <ele>27.534912</ele>
                <time>2012-12-15T07:00:36Z</time>
            </trkpt>
            <trkpt lon="100.928736" lat="12.880912">
                <ele>27.054321</ele>
                <time>2012-12-15T07:01:06Z</time>
            </trkpt>
            <trkpt lon="100.929768" lat="12.879879">
                <ele>25.131714</ele>
                <time>2012-12-15T07:01:36Z</time>
            </trkpt>
            <trkpt lon="100.931014" lat="12.879863">
                <ele>23.208984</ele>
                <time>2012-12-15T07:02:06Z</time>
            </trkpt>
            <trkpt lon="100.932403" lat="12.880832">
                <ele>17.921753</ele>
                <time>2012-12-15T07:02:36Z</time>
            </trkpt>
            <trkpt lon="100.934007" lat="12.880252">
                <ele>17.921753</ele>
                <time>2012-12-15T07:03:06Z</time>
            </trkpt>
            <trkpt lon="100.934586" lat="12.878781">
                <ele>19.844360</ele>
                <time>2012-12-15T07:03:36Z</time>
            </trkpt>
            <trkpt lon="100.935331" lat="12.877626">
                <ele>20.805664</ele>
                <time>2012-12-15T07:04:06Z</time>
            </trkpt>
            <trkpt lon="100.935644" lat="12.876024">
                <ele>20.324951</ele>
                <time>2012-12-15T07:04:36Z</time>
            </trkpt>
            <trkpt lon="100.936382" lat="12.874333">
                <ele>18.402344</ele>
                <time>2012-12-15T07:05:06Z</time>
            </trkpt>
            <trkpt lon="100.936737" lat="12.873020">
                <ele>18.402344</ele>
                <time>2012-12-15T07:05:36Z</time>
            </trkpt>
            <trkpt lon="100.936667" lat="12.873160">
                <ele>18.402344</ele>
                <time>2012-12-15T07:06:06Z</time>
            </trkpt>
            <trkpt lon="100.936272" lat="12.874622">
                <ele>18.402344</ele>
                <time>2012-12-15T07:06:36Z</time>
            </trkpt>
            <trkpt lon="100.935732" lat="12.875713">
                <ele>19.844360</ele>
                <time>2012-12-15T07:07:06Z</time>
            </trkpt>
            <trkpt lon="100.936664" lat="12.876245">
                <ele>21.766968</ele>
                <time>2012-12-15T07:07:36Z</time>
            </trkpt>
            <trkpt lon="100.938095" lat="12.875509">
                <ele>20.324951</ele>
                <time>2012-12-15T07:08:06Z</time>
            </trkpt>
            <trkpt lon="100.939121" lat="12.874560">
                <ele>20.324951</ele>
                <time>2012-12-15T07:08:36Z</time>
            </trkpt>
            <trkpt lon="100.939121" lat="12.874560">
                <ele>20.324951</ele>
                <time>2012-12-15T07:09:06Z</time>
            </trkpt>
            <trkpt lon="100.939930" lat="12.874001">
                <ele>22.247559</ele>
                <time>2012-12-15T07:09:36Z</time>
            </trkpt>
            <trkpt lon="100.940323" lat="12.873456">
                <ele>23.208984</ele>
                <time>2012-12-15T07:10:06Z</time>
            </trkpt>
            <trkpt lon="100.940723" lat="12.872698">
                <ele>27.054321</ele>
                <time>2012-12-15T07:10:36Z</time>
            </trkpt>
            <trkpt lon="100.941246" lat="12.871878">
                <ele>28.976929</ele>
                <time>2012-12-15T07:11:06Z</time>
            </trkpt>
            <trkpt lon="100.942168" lat="12.871771">
                <ele>33.783447</ele>
                <time>2012-12-15T07:11:36Z</time>
            </trkpt>
            <trkpt lon="100.943155" lat="12.872239">
                <ele>35.706055</ele>
                <time>2012-12-15T07:12:06Z</time>
            </trkpt>
            <trkpt lon="100.943320" lat="12.871102">
                <ele>33.783447</ele>
                <time>2012-12-15T07:12:36Z</time>
            </trkpt>
            <trkpt lon="100.944009" lat="12.870620">
                <ele>37.628662</ele>
                <time>2012-12-15T07:13:06Z</time>
            </trkpt>
            <trkpt lon="100.944747" lat="12.870367">
                <ele>40.993408</ele>
                <time>2012-12-15T07:13:36Z</time>
            </trkpt>
            <trkpt lon="100.945399" lat="12.869538">
                <ele>40.512817</ele>
                <time>2012-12-15T07:14:06Z</time>
            </trkpt>
            <trkpt lon="100.946085" lat="12.868011">
                <ele>39.070679</ele>
                <time>2012-12-15T07:14:36Z</time>
            </trkpt>
            <trkpt lon="100.945982" lat="12.866970">
                <ele>36.667481</ele>
                <time>2012-12-15T07:15:06Z</time>
            </trkpt>
            <trkpt lon="100.946005" lat="12.867959">
                <ele>40.512817</ele>
                <time>2012-12-15T07:15:36Z</time>
            </trkpt>
            <trkpt lon="100.946504" lat="12.868375">
                <ele>41.473999</ele>
                <time>2012-12-15T07:16:06Z</time>
            </trkpt>
            <trkpt lon="100.947019" lat="12.868821">
                <ele>41.954712</ele>
                <time>2012-12-15T07:16:36Z</time>
            </trkpt>
            <trkpt lon="100.947717" lat="12.868756">
                <ele>44.838623</ele>
                <time>2012-12-15T07:17:06Z</time>
            </trkpt>
            <trkpt lon="100.947838" lat="12.867761">
                <ele>44.358032</ele>
                <time>2012-12-15T07:17:36Z</time>
            </trkpt>
            <trkpt lon="100.947554" lat="12.866862">
                <ele>39.551269</ele>
                <time>2012-12-15T07:18:06Z</time>
            </trkpt>
            <trkpt lon="100.947393" lat="12.866840">
                <ele>39.551269</ele>
                <time>2012-12-15T07:18:36Z</time>
            </trkpt>
            <trkpt lon="100.947600" lat="12.866853">
                <ele>36.667481</ele>
                <time>2012-12-15T07:19:06Z</time>
            </trkpt>
            <trkpt lon="100.947879" lat="12.867169">
                <ele>37.628662</ele>
                <time>2012-12-15T07:19:36Z</time>
            </trkpt>
            <trkpt lon="100.947910" lat="12.867738">
                <ele>41.954712</ele>
                <time>2012-12-15T07:20:06Z</time>
            </trkpt>
            <trkpt lon="100.947957" lat="12.868416">
                <ele>43.877319</ele>
                <time>2012-12-15T07:20:36Z</time>
            </trkpt>
            <trkpt lon="100.948140" lat="12.868558">
                <ele>45.799927</ele>
                <time>2012-12-15T07:21:06Z</time>
            </trkpt>
            <trkpt lon="100.948126" lat="12.868754">
                <ele>43.877319</ele>
                <time>2012-12-15T07:21:36Z</time>
            </trkpt>
            <trkpt lon="100.947799" lat="12.868792">
                <ele>44.358032</ele>
                <time>2012-12-15T07:22:06Z</time>
            </trkpt>
            <trkpt lon="100.947320" lat="12.868839">
                <ele>45.319214</ele>
                <time>2012-12-15T07:22:36Z</time>
            </trkpt>
            <trkpt lon="100.947171" lat="12.869297">
                <ele>46.280640</ele>
                <time>2012-12-15T07:23:06Z</time>
            </trkpt>
            <trkpt lon="100.947159" lat="12.869878">
                <ele>45.319214</ele>
                <time>2012-12-15T07:23:36Z</time>
            </trkpt>
            <trkpt lon="100.947225" lat="12.869488">
                <ele>42.435425</ele>
                <time>2012-12-15T07:24:06Z</time>
            </trkpt>
            <trkpt lon="100.947369" lat="12.868844">
                <ele>42.916016</ele>
                <time>2012-12-15T07:24:36Z</time>
            </trkpt>
            <trkpt lon="100.947850" lat="12.868386">
                <ele>41.954712</ele>
                <time>2012-12-15T07:25:06Z</time>
            </trkpt>
            <trkpt lon="100.947850" lat="12.866997">
                <ele>39.551269</ele>
                <time>2012-12-15T07:25:36Z</time>
            </trkpt>
            <trkpt lon="100.947678" lat="12.865856">
                <ele>35.706055</ele>
                <time>2012-12-15T07:26:06Z</time>
            </trkpt>
            <trkpt lon="100.946986" lat="12.864195">
                <ele>33.302856</ele>
                <time>2012-12-15T07:26:36Z</time>
            </trkpt>
            <trkpt lon="100.946294" lat="12.863181">
                <ele>31.860718</ele>
                <time>2012-12-15T07:27:06Z</time>
            </trkpt>
            <trkpt lon="100.944812" lat="12.862562">
                <ele>24.170288</ele>
                <time>2012-12-15T07:28:06Z</time>
            </trkpt>
            <trkpt lon="100.943878" lat="12.863870">
                <ele>26.092896</ele>
                <time>2012-12-15T07:28:36Z</time>
            </trkpt>
            <trkpt lon="100.942368" lat="12.864197">
                <ele>28.015503</ele>
                <time>2012-12-15T07:29:06Z</time>
            </trkpt>
            <trkpt lon="100.940781" lat="12.863333">
                <ele>28.496216</ele>
                <time>2012-12-15T07:29:36Z</time>
            </trkpt>
            <trkpt lon="100.939024" lat="12.862697">
                <ele>24.651001</ele>
                <time>2012-12-15T07:30:06Z</time>
            </trkpt>
            <trkpt lon="100.937070" lat="12.862563">
                <ele>25.612305</ele>
                <time>2012-12-15T07:30:36Z</time>
            </trkpt>
            <trkpt lon="100.936135" lat="12.862698">
                <ele>26.092896</ele>
                <time>2012-12-15T07:31:06Z</time>
            </trkpt>
            <trkpt lon="100.937230" lat="12.862556">
                <ele>22.247559</ele>
                <time>2012-12-15T07:31:36Z</time>
            </trkpt>
            <trkpt lon="100.937509" lat="12.862474">
                <ele>22.247559</ele>
                <time>2012-12-15T07:32:06Z</time>
            </trkpt>
            <trkpt lon="100.937424" lat="12.862309">
                <ele>22.728272</ele>
                <time>2012-12-15T07:32:36Z</time>
            </trkpt>
            <trkpt lon="100.937425" lat="12.862470">
                <ele>22.247559</ele>
                <time>2012-12-15T07:33:06Z</time>
            </trkpt>
            <trkpt lon="100.938007" lat="12.862620">
                <ele>20.805664</ele>
                <time>2012-12-15T07:33:36Z</time>
            </trkpt>
            <trkpt lon="100.938782" lat="12.862646">
                <ele>17.921753</ele>
                <time>2012-12-15T07:34:06Z</time>
            </trkpt>
            <trkpt lon="100.938671" lat="12.861997">
                <ele>20.324951</ele>
                <time>2012-12-15T07:34:36Z</time>
            </trkpt>
            <trkpt lon="100.938436" lat="12.861839">
                <ele>20.324951</ele>
                <time>2012-12-15T07:35:06Z</time>
            </trkpt>
            <trkpt lon="100.937709" lat="12.861611">
                <ele>19.844360</ele>
                <time>2012-12-15T07:35:36Z</time>
            </trkpt>
            <trkpt lon="100.937667" lat="12.861184">
                <ele>19.844360</ele>
                <time>2012-12-15T07:36:06Z</time>
            </trkpt>
            <trkpt lon="100.937845" lat="12.860534">
                <ele>17.441162</ele>
                <time>2012-12-15T07:36:36Z</time>
            </trkpt>
            <trkpt lon="100.937952" lat="12.860027">
                <ele>17.441162</ele>
                <time>2012-12-15T07:37:06Z</time>
            </trkpt>
            <trkpt lon="100.937992" lat="12.859769">
                <ele>16.960449</ele>
                <time>2012-12-15T07:37:36Z</time>
            </trkpt>
            <trkpt lon="100.938021" lat="12.859353">
                <ele>17.441162</ele>
                <time>2012-12-15T07:38:06Z</time>
            </trkpt>
            <trkpt lon="100.938013" lat="12.859008">
                <ele>17.921753</ele>
                <time>2012-12-15T07:38:36Z</time>
            </trkpt>
            <trkpt lon="100.938169" lat="12.857953">
                <ele>18.402344</ele>
                <time>2012-12-15T07:39:06Z</time>
            </trkpt>
            <trkpt lon="100.939095" lat="12.857771">
                <ele>18.883057</ele>
                <time>2012-12-15T07:39:36Z</time>
            </trkpt>
            <trkpt lon="100.940281" lat="12.858589">
                <ele>17.921753</ele>
                <time>2012-12-15T07:40:06Z</time>
            </trkpt>
            <trkpt lon="100.941710" lat="12.858828">
                <ele>17.441162</ele>
                <time>2012-12-15T07:40:36Z</time>
            </trkpt>
            <trkpt lon="100.942977" lat="12.859016">
                <ele>19.844360</ele>
                <time>2012-12-15T07:41:06Z</time>
            </trkpt>
            <trkpt lon="100.943756" lat="12.859037">
                <ele>18.883057</ele>
                <time>2012-12-15T07:41:36Z</time>
            </trkpt>
            <trkpt lon="100.944333" lat="12.859057">
                <ele>19.844360</ele>
                <time>2012-12-15T07:42:06Z</time>
            </trkpt>
            <trkpt lon="100.945009" lat="12.859108">
                <ele>23.208984</ele>
                <time>2012-12-15T07:42:36Z</time>
            </trkpt>
            <trkpt lon="100.945553" lat="12.859154">
                <ele>22.247559</ele>
                <time>2012-12-15T07:43:06Z</time>
            </trkpt>
            <trkpt lon="100.945678" lat="12.859299">
                <ele>22.247559</ele>
                <time>2012-12-15T07:43:36Z</time>
            </trkpt>
            <trkpt lon="100.945680" lat="12.859514">
                <ele>22.247559</ele>
                <time>2012-12-15T07:44:06Z</time>
            </trkpt>
            <trkpt lon="100.945985" lat="12.859793">
                <ele>22.728272</ele>
                <time>2012-12-15T07:44:36Z</time>
            </trkpt>
            <trkpt lon="100.946690" lat="12.859383">
                <ele>25.131714</ele>
                <time>2012-12-15T07:45:06Z</time>
            </trkpt>
            <trkpt lon="100.947677" lat="12.858756">
                <ele>26.573608</ele>
                <time>2012-12-15T07:45:36Z</time>
            </trkpt>
            <trkpt lon="100.947544" lat="12.856890">
                <ele>27.054321</ele>
                <time>2012-12-15T07:46:06Z</time>
            </trkpt>
            <trkpt lon="100.947635" lat="12.855988">
                <ele>26.573608</ele>
                <time>2012-12-15T07:46:36Z</time>
            </trkpt>
            <trkpt lon="100.948439" lat="12.855322">
                <ele>24.651001</ele>
                <time>2012-12-15T07:47:06Z</time>
            </trkpt>
            <trkpt lon="100.949078" lat="12.853993">
                <ele>23.689575</ele>
                <time>2012-12-15T07:47:36Z</time>
            </trkpt>
            <trkpt lon="100.949787" lat="12.853045">
                <ele>22.728272</ele>
                <time>2012-12-15T07:48:06Z</time>
            </trkpt>
            <trkpt lon="100.950214" lat="12.852381">
                <ele>23.689575</ele>
                <time>2012-12-15T07:48:36Z</time>
            </trkpt>
            <trkpt lon="100.950863" lat="12.851008">
                <ele>23.689575</ele>
                <time>2012-12-15T07:49:06Z</time>
            </trkpt>
            <trkpt lon="100.950802" lat="12.850692">
                <ele>22.728272</ele>
                <time>2012-12-15T07:49:36Z</time>
            </trkpt>
            <trkpt lon="100.950745" lat="12.851532">
                <ele>21.286377</ele>
                <time>2012-12-15T07:50:06Z</time>
            </trkpt>
            <trkpt lon="100.950355" lat="12.852156">
                <ele>21.286377</ele>
                <time>2012-12-15T07:50:36Z</time>
            </trkpt>
            <trkpt lon="100.950821" lat="12.852657">
                <ele>21.286377</ele>
                <time>2012-12-15T07:51:06Z</time>
            </trkpt>
            <trkpt lon="100.950863" lat="12.853074">
                <ele>23.689575</ele>
                <time>2012-12-15T07:51:36Z</time>
            </trkpt>
            <trkpt lon="100.951117" lat="12.853288">
                <ele>25.612305</ele>
                <time>2012-12-15T07:52:06Z</time>
            </trkpt>
            <trkpt lon="100.951590" lat="12.853604">
                <ele>25.131714</ele>
                <time>2012-12-15T07:52:36Z</time>
            </trkpt>
            <trkpt lon="100.952088" lat="12.854201">
                <ele>25.612305</ele>
                <time>2012-12-15T07:53:06Z</time>
            </trkpt>
            <trkpt lon="100.952309" lat="12.854457">
                <ele>23.689575</ele>
                <time>2012-12-15T07:53:36Z</time>
            </trkpt>
            <trkpt lon="100.952698" lat="12.855027">
                <ele>24.651001</ele>
                <time>2012-12-15T07:54:06Z</time>
            </trkpt>
            <trkpt lon="100.953539" lat="12.855472">
                <ele>25.612305</ele>
                <time>2012-12-15T07:54:36Z</time>
            </trkpt>
            <trkpt lon="100.954237" lat="12.856353">
                <ele>25.131714</ele>
                <time>2012-12-15T07:55:06Z</time>
            </trkpt>
            <trkpt lon="100.954990" lat="12.856834">
                <ele>26.092896</ele>
                <time>2012-12-15T07:55:36Z</time>
            </trkpt>
            <trkpt lon="100.956023" lat="12.856738">
                <ele>25.131714</ele>
                <time>2012-12-15T07:56:06Z</time>
            </trkpt>
            <trkpt lon="100.956769" lat="12.857463">
                <ele>26.573608</ele>
                <time>2012-12-15T07:56:36Z</time>
            </trkpt>
            <trkpt lon="100.956876" lat="12.857983">
                <ele>26.573608</ele>
                <time>2012-12-15T07:57:06Z</time>
            </trkpt>
            <trkpt lon="100.957008" lat="12.858795">
                <ele>27.534912</ele>
                <time>2012-12-15T07:57:36Z</time>
            </trkpt>
            <trkpt lon="100.958091" lat="12.859261">
                <ele>27.054321</ele>
                <time>2012-12-15T07:58:06Z</time>
            </trkpt>
            <trkpt lon="100.959122" lat="12.859577">
                <ele>28.015503</ele>
                <time>2012-12-15T07:58:36Z</time>
            </trkpt>
            <trkpt lon="100.960246" lat="12.860014">
                <ele>31.860718</ele>
                <time>2012-12-15T07:59:06Z</time>
            </trkpt>
            <trkpt lon="100.961555" lat="12.860366">
                <ele>31.380127</ele>
                <time>2012-12-15T07:59:36Z</time>
            </trkpt>
            <trkpt lon="100.962514" lat="12.860999">
                <ele>34.264160</ele>
                <time>2012-12-15T08:00:06Z</time>
            </trkpt>
            <trkpt lon="100.962910" lat="12.861909">
                <ele>31.380127</ele>
                <time>2012-12-15T08:00:36Z</time>
            </trkpt>
            <trkpt lon="100.962878" lat="12.861892">
                <ele>24.170288</ele>
                <time>2012-12-15T08:01:06Z</time>
            </trkpt>
            <trkpt lon="100.962861" lat="12.861877">
                <ele>21.286377</ele>
                <time>2012-12-15T08:01:36Z</time>
            </trkpt>
            <trkpt lon="100.962853" lat="12.861866">
                <ele>23.208984</ele>
                <time>2012-12-15T08:02:06Z</time>
            </trkpt>
            <trkpt lon="100.962847" lat="12.861864">
                <ele>19.363770</ele>
                <time>2012-12-15T08:02:36Z</time>
            </trkpt>
            <trkpt lon="100.962844" lat="12.861860">
                <ele>16.960449</ele>
                <time>2012-12-15T08:03:06Z</time>
            </trkpt>
            <trkpt lon="100.962843" lat="12.861856">
                <ele>18.883057</ele>
                <time>2012-12-15T08:03:36Z</time>
            </trkpt>
            <trkpt lon="100.962842" lat="12.861855">
                <ele>17.921753</ele>
                <time>2012-12-15T08:04:06Z</time>
            </trkpt>
            <trkpt lon="100.962843" lat="12.861856">
                <ele>17.441162</ele>
                <time>2012-12-15T08:04:36Z</time>
            </trkpt>
            <trkpt lon="100.962845" lat="12.861856">
                <ele>20.805664</ele>
                <time>2012-12-15T08:05:06Z</time>
            </trkpt>
            <trkpt lon="100.962845" lat="12.861854">
                <ele>22.247559</ele>
                <time>2012-12-15T08:05:36Z</time>
            </trkpt>
            <trkpt lon="100.962844" lat="12.861852">
                <ele>18.883057</ele>
                <time>2012-12-15T08:06:06Z</time>
            </trkpt>
            <trkpt lon="100.962843" lat="12.861849">
                <ele>19.363770</ele>
                <time>2012-12-15T08:06:36Z</time>
            </trkpt>
            <trkpt lon="100.962842" lat="12.861847">
                <ele>24.651001</ele>
                <time>2012-12-15T08:07:06Z</time>
            </trkpt>
            <trkpt lon="100.962843" lat="12.861846">
                <ele>23.689575</ele>
                <time>2012-12-15T08:07:36Z</time>
            </trkpt>
            <trkpt lon="100.962845" lat="12.861845">
                <ele>26.573608</ele>
                <time>2012-12-15T08:08:06Z</time>
            </trkpt>
            <trkpt lon="100.962845" lat="12.861844">
                <ele>28.496216</ele>
                <time>2012-12-15T08:08:36Z</time>
            </trkpt>
            <trkpt lon="100.962845" lat="12.861845">
                <ele>28.496216</ele>
                <time>2012-12-15T08:09:06Z</time>
            </trkpt>
            <trkpt lon="100.962846" lat="12.861844">
                <ele>25.131714</ele>
                <time>2012-12-15T08:09:36Z</time>
            </trkpt>
            <trkpt lon="100.962846" lat="12.861843">
                <ele>27.054321</ele>
                <time>2012-12-15T08:10:06Z</time>
            </trkpt>
            <trkpt lon="100.962846" lat="12.861842">
                <ele>25.612305</ele>
                <time>2012-12-15T08:10:36Z</time>
            </trkpt>
            <trkpt lon="100.962845" lat="12.861840">
                <ele>22.247559</ele>
                <time>2012-12-15T08:11:06Z</time>
            </trkpt>
            <trkpt lon="100.962844" lat="12.861839">
                <ele>15.999023</ele>
                <time>2012-12-15T08:11:36Z</time>
            </trkpt>
            <trkpt lon="100.962844" lat="12.861838">
                <ele>21.286377</ele>
                <time>2012-12-15T08:12:06Z</time>
            </trkpt>
            <trkpt lon="100.962844" lat="12.861837">
                <ele>18.883057</ele>
                <time>2012-12-15T08:12:36Z</time>
            </trkpt>
            <trkpt lon="100.962844" lat="12.861836">
                <ele>24.170288</ele>
                <time>2012-12-15T08:13:06Z</time>
            </trkpt>
            <trkpt lon="100.962844" lat="12.861835">
                <ele>23.689575</ele>
                <time>2012-12-15T08:13:36Z</time>
            </trkpt>
            <trkpt lon="100.962844" lat="12.861835">
                <ele>27.534912</ele>
                <time>2012-12-15T08:14:06Z</time>
            </trkpt>
            <trkpt lon="100.962844" lat="12.861835">
                <ele>28.015503</ele>
                <time>2012-12-15T08:14:36Z</time>
            </trkpt>
            <trkpt lon="100.962844" lat="12.861833">
                <ele>26.573608</ele>
                <time>2012-12-15T08:15:06Z</time>
            </trkpt>
            <trkpt lon="100.962769" lat="12.861730">
                <ele>27.054321</ele>
                <time>2012-12-15T08:15:36Z</time>
            </trkpt>
            <trkpt lon="100.962742" lat="12.861679">
                <ele>27.054321</ele>
                <time>2012-12-15T08:16:06Z</time>
            </trkpt>
            <trkpt lon="100.962593" lat="12.861135">
                <ele>25.131714</ele>
                <time>2012-12-15T08:16:36Z</time>
            </trkpt>
            <trkpt lon="100.962358" lat="12.860129">
                <ele>27.054321</ele>
                <time>2012-12-15T08:17:06Z</time>
            </trkpt>
            <trkpt lon="100.962100" lat="12.859004">
                <ele>27.054321</ele>
                <time>2012-12-15T08:17:36Z</time>
            </trkpt>
            <trkpt lon="100.961855" lat="12.857727">
                <ele>27.534912</ele>
                <time>2012-12-15T08:18:06Z</time>
            </trkpt>
            <trkpt lon="100.961642" lat="12.856519">
                <ele>28.976929</ele>
                <time>2012-12-15T08:18:36Z</time>
            </trkpt>
            <trkpt lon="100.961564" lat="12.855686">
                <ele>29.457520</ele>
                <time>2012-12-15T08:19:06Z</time>
            </trkpt>
            <trkpt lon="100.961542" lat="12.855451">
                <ele>29.457520</ele>
                <time>2012-12-15T08:19:36Z</time>
            </trkpt>
            <trkpt lon="100.961416" lat="12.854243">
                <ele>28.496216</ele>
                <time>2012-12-15T08:20:06Z</time>
            </trkpt>
            <trkpt lon="100.961379" lat="12.853896">
                <ele>25.131714</ele>
                <time>2012-12-15T08:20:36Z</time>
            </trkpt>
            <trkpt lon="100.961380" lat="12.854274">
                <ele>27.054321</ele>
                <time>2012-12-15T08:21:06Z</time>
            </trkpt>
            <trkpt lon="100.961529" lat="12.855089">
                <ele>28.015503</ele>
                <time>2012-12-15T08:21:36Z</time>
            </trkpt>
            <trkpt lon="100.962597" lat="12.854744">
                <ele>28.976929</ele>
                <time>2012-12-15T08:22:06Z</time>
            </trkpt>
            <trkpt lon="100.963920" lat="12.854120">
                <ele>29.938110</ele>
                <time>2012-12-15T08:22:36Z</time>
            </trkpt>
            <trkpt lon="100.965131" lat="12.853003">
                <ele>29.938110</ele>
                <time>2012-12-15T08:23:06Z</time>
            </trkpt>
            <trkpt lon="100.966061" lat="12.851694">
                <ele>28.496216</ele>
                <time>2012-12-15T08:23:36Z</time>
            </trkpt>
            <trkpt lon="100.965772" lat="12.850557">
                <ele>29.938110</ele>
                <time>2012-12-15T08:24:06Z</time>
            </trkpt>
            <trkpt lon="100.965580" lat="12.849380">
                <ele>29.457520</ele>
                <time>2012-12-15T08:24:36Z</time>
            </trkpt>
            <trkpt lon="100.965518" lat="12.849008">
                <ele>28.496216</ele>
                <time>2012-12-15T08:25:06Z</time>
            </trkpt>
            <trkpt lon="100.965465" lat="12.848801">
                <ele>33.302856</ele>
                <time>2012-12-15T08:25:36Z</time>
            </trkpt>
            <trkpt lon="100.964969" lat="12.847236">
                <ele>31.860718</ele>
                <time>2012-12-15T08:26:06Z</time>
            </trkpt>
            <trkpt lon="100.966223" lat="12.846699">
                <ele>31.860718</ele>
                <time>2012-12-15T08:26:36Z</time>
            </trkpt>
            <trkpt lon="100.967661" lat="12.846174">
                <ele>31.860718</ele>
                <time>2012-12-15T08:27:06Z</time>
            </trkpt>
            <trkpt lon="100.968928" lat="12.845459">
                <ele>34.264160</ele>
                <time>2012-12-15T08:27:36Z</time>
            </trkpt>
            <trkpt lon="100.970108" lat="12.844888">
                <ele>35.225464</ele>
                <time>2012-12-15T08:28:06Z</time>
            </trkpt>
            <trkpt lon="100.970498" lat="12.844674">
                <ele>34.264160</ele>
                <time>2012-12-15T08:28:36Z</time>
            </trkpt>
            <trkpt lon="100.969821" lat="12.845018">
                <ele>35.706055</ele>
                <time>2012-12-15T08:29:06Z</time>
            </trkpt>
            <trkpt lon="100.968846" lat="12.845505">
                <ele>34.744873</ele>
                <time>2012-12-15T08:29:36Z</time>
            </trkpt>
            <trkpt lon="100.968198" lat="12.845575">
                <ele>33.783447</ele>
                <time>2012-12-15T08:30:06Z</time>
            </trkpt>
            <trkpt lon="100.968043" lat="12.844345">
                <ele>33.783447</ele>
                <time>2012-12-15T08:30:36Z</time>
            </trkpt>
            <trkpt lon="100.967899" lat="12.843527">
                <ele>31.380127</ele>
                <time>2012-12-15T08:31:06Z</time>
            </trkpt>
            <trkpt lon="100.967841" lat="12.843350">
                <ele>31.860718</ele>
                <time>2012-12-15T08:31:36Z</time>
            </trkpt>
            <trkpt lon="100.967347" lat="12.843410">
                <ele>28.496216</ele>
                <time>2012-12-15T08:32:06Z</time>
            </trkpt>
            <trkpt lon="100.967156" lat="12.842955">
                <ele>30.899536</ele>
                <time>2012-12-15T08:32:36Z</time>
            </trkpt>
            <trkpt lon="100.967059" lat="12.842534">
                <ele>30.418823</ele>
                <time>2012-12-15T08:33:06Z</time>
            </trkpt>
            <trkpt lon="100.966343" lat="12.842260">
                <ele>26.573608</ele>
                <time>2012-12-15T08:33:36Z</time>
            </trkpt>
            <trkpt lon="100.966243" lat="12.842404">
                <ele>28.976929</ele>
                <time>2012-12-15T08:34:06Z</time>
            </trkpt>
            <trkpt lon="100.966219" lat="12.842303">
                <ele>28.496216</ele>
                <time>2012-12-15T08:34:36Z</time>
            </trkpt>
            <trkpt lon="100.966226" lat="12.842273">
                <ele>29.457520</ele>
                <time>2012-12-15T08:35:06Z</time>
            </trkpt>
            <trkpt lon="100.966228" lat="12.842240">
                <ele>28.976929</ele>
                <time>2012-12-15T08:35:36Z</time>
            </trkpt>
            <trkpt lon="100.965618" lat="12.842169">
                <ele>30.418823</ele>
                <time>2012-12-15T08:36:06Z</time>
            </trkpt>
            <trkpt lon="100.964343" lat="12.842823">
                <ele>31.380127</ele>
                <time>2012-12-15T08:36:36Z</time>
            </trkpt>
            <trkpt lon="100.962990" lat="12.843855">
                <ele>31.860718</ele>
                <time>2012-12-15T08:37:06Z</time>
            </trkpt>
            <trkpt lon="100.962204" lat="12.844065">
                <ele>30.418823</ele>
                <time>2012-12-15T08:37:36Z</time>
            </trkpt>
            <trkpt lon="100.961688" lat="12.844072">
                <ele>28.496216</ele>
                <time>2012-12-15T08:38:06Z</time>
            </trkpt>
            <trkpt lon="100.962607" lat="12.843885">
                <ele>27.054321</ele>
                <time>2012-12-15T08:38:36Z</time>
            </trkpt>
            <trkpt lon="100.963008" lat="12.842654">
                <ele>29.457520</ele>
                <time>2012-12-15T08:39:06Z</time>
            </trkpt>
            <trkpt lon="100.963418" lat="12.841393">
                <ele>31.860718</ele>
                <time>2012-12-15T08:39:36Z</time>
            </trkpt>
            <trkpt lon="100.963821" lat="12.840154">
                <ele>35.225464</ele>
                <time>2012-12-15T08:40:06Z</time>
            </trkpt>
            <trkpt lon="100.964272" lat="12.838767">
                <ele>37.628662</ele>
                <time>2012-12-15T08:40:36Z</time>
            </trkpt>
            <trkpt lon="100.965639" lat="12.837883">
                <ele>37.148071</ele>
                <time>2012-12-15T08:41:06Z</time>
            </trkpt>
            <trkpt lon="100.966137" lat="12.836450">
                <ele>37.148071</ele>
                <time>2012-12-15T08:41:36Z</time>
            </trkpt>
            <trkpt lon="100.967052" lat="12.835824">
                <ele>37.148071</ele>
                <time>2012-12-15T08:42:06Z</time>
            </trkpt>
            <trkpt lon="100.966776" lat="12.835336">
                <ele>34.744873</ele>
                <time>2012-12-15T08:42:36Z</time>
            </trkpt>
            <trkpt lon="100.966776" lat="12.835336">
                <ele>35.706055</ele>
                <time>2012-12-15T08:43:06Z</time>
            </trkpt>
            <trkpt lon="100.966776" lat="12.835336">
                <ele>28.976929</ele>
                <time>2012-12-15T08:43:36Z</time>
            </trkpt>
            <trkpt lon="100.966782" lat="12.835327">
                <ele>27.054321</ele>
                <time>2012-12-15T08:44:06Z</time>
            </trkpt>
            <trkpt lon="100.966893" lat="12.835146">
                <ele>29.457520</ele>
                <time>2012-12-15T08:44:36Z</time>
            </trkpt>
            <trkpt lon="100.966910" lat="12.835097">
                <ele>31.380127</ele>
                <time>2012-12-15T08:45:06Z</time>
            </trkpt>
            <trkpt lon="100.966910" lat="12.835097">
                <ele>28.015503</ele>
                <time>2012-12-15T08:45:36Z</time>
            </trkpt>
            <trkpt lon="100.966810" lat="12.835284">
                <ele>31.380127</ele>
                <time>2012-12-15T08:46:06Z</time>
            </trkpt>
            <trkpt lon="100.967123" lat="12.836320">
                <ele>34.744873</ele>
                <time>2012-12-15T08:46:36Z</time>
            </trkpt>
            <trkpt lon="100.967893" lat="12.837113">
                <ele>35.706055</ele>
                <time>2012-12-15T08:47:06Z</time>
            </trkpt>
            <trkpt lon="100.969277" lat="12.838179">
                <ele>36.667481</ele>
                <time>2012-12-15T08:47:36Z</time>
            </trkpt>
            <trkpt lon="100.970912" lat="12.838970">
                <ele>35.706055</ele>
                <time>2012-12-15T08:48:06Z</time>
            </trkpt>
            <trkpt lon="100.972027" lat="12.838985">
                <ele>35.706055</ele>
                <time>2012-12-15T08:48:36Z</time>
            </trkpt>
            <trkpt lon="100.972389" lat="12.838426">
                <ele>36.186768</ele>
                <time>2012-12-15T08:49:06Z</time>
            </trkpt>
            <trkpt lon="100.972427" lat="12.837881">
                <ele>34.264160</ele>
                <time>2012-12-15T08:49:36Z</time>
            </trkpt>
            <trkpt lon="100.972479" lat="12.837536">
                <ele>38.590088</ele>
                <time>2012-12-15T08:50:06Z</time>
            </trkpt>
            <trkpt lon="100.972531" lat="12.837129">
                <ele>39.070679</ele>
                <time>2012-12-15T08:50:36Z</time>
            </trkpt>
            <trkpt lon="100.972572" lat="12.835430">
                <ele>39.070679</ele>
                <time>2012-12-15T08:51:36Z</time>
            </trkpt>
            <trkpt lon="100.973420" lat="12.835100">
                <ele>36.186768</ele>
                <time>2012-12-15T08:52:06Z</time>
            </trkpt>
            <trkpt lon="100.974411" lat="12.834831">
                <ele>35.706055</ele>
                <time>2012-12-15T08:52:36Z</time>
            </trkpt>
            <trkpt lon="100.975506" lat="12.835422">
                <ele>35.706055</ele>
                <time>2012-12-15T08:53:06Z</time>
            </trkpt>
            <trkpt lon="100.975811" lat="12.836238">
                <ele>37.628662</ele>
                <time>2012-12-15T08:53:36Z</time>
            </trkpt>
            <trkpt lon="100.974695" lat="12.837127">
                <ele>40.993408</ele>
                <time>2012-12-15T08:54:06Z</time>
            </trkpt>
            <trkpt lon="100.974113" lat="12.837395">
                <ele>41.473999</ele>
                <time>2012-12-15T08:54:36Z</time>
            </trkpt>
            <trkpt lon="100.974024" lat="12.837658">
                <ele>38.590088</ele>
                <time>2012-12-15T08:55:06Z</time>
            </trkpt>
            <trkpt lon="100.973633" lat="12.838536">
                <ele>38.109375</ele>
                <time>2012-12-15T08:55:36Z</time>
            </trkpt>
            <trkpt lon="100.973633" lat="12.838536">
                <ele>37.148071</ele>
                <time>2012-12-15T08:56:06Z</time>
            </trkpt>
            <trkpt lon="100.973714" lat="12.839257">
                <ele>37.628662</ele>
                <time>2012-12-15T08:56:36Z</time>
            </trkpt>
            <trkpt lon="100.973834" lat="12.840577">
                <ele>37.628662</ele>
                <time>2012-12-15T08:57:06Z</time>
            </trkpt>
            <trkpt lon="100.973961" lat="12.842463">
                <ele>37.148071</ele>
                <time>2012-12-15T08:57:36Z</time>
            </trkpt>
            <trkpt lon="100.974768" lat="12.843981">
                <ele>38.109375</ele>
                <time>2012-12-15T08:58:06Z</time>
            </trkpt>
            <trkpt lon="100.976272" lat="12.843575">
                <ele>39.551269</ele>
                <time>2012-12-15T08:58:36Z</time>
            </trkpt>
            <trkpt lon="100.977832" lat="12.843616">
                <ele>42.435425</ele>
                <time>2012-12-15T08:59:06Z</time>
            </trkpt>
            <trkpt lon="100.978689" lat="12.844009">
                <ele>43.877319</ele>
                <time>2012-12-15T08:59:36Z</time>
            </trkpt>
            <trkpt lon="100.979142" lat="12.844254">
                <ele>43.396606</ele>
                <time>2012-12-15T09:00:06Z</time>
            </trkpt>
            <trkpt lon="100.979768" lat="12.844620">
                <ele>45.319214</ele>
                <time>2012-12-15T09:00:36Z</time>
            </trkpt>
            <trkpt lon="100.980631" lat="12.844673">
                <ele>46.280640</ele>
                <time>2012-12-15T09:01:06Z</time>
            </trkpt>
            <trkpt lon="100.981299" lat="12.844655">
                <ele>49.645264</ele>
                <time>2012-12-15T09:01:36Z</time>
            </trkpt>
            <trkpt lon="100.981973" lat="12.844668">
                <ele>53.009766</ele>
                <time>2012-12-15T09:02:06Z</time>
            </trkpt>
            <trkpt lon="100.982707" lat="12.844765">
                <ele>53.009766</ele>
                <time>2012-12-15T09:02:36Z</time>
            </trkpt>
            <trkpt lon="100.983557" lat="12.844961">
                <ele>51.087158</ele>
                <time>2012-12-15T09:03:06Z</time>
            </trkpt>
            <trkpt lon="100.983912" lat="12.845026">
                <ele>53.009766</ele>
                <time>2012-12-15T09:03:36Z</time>
            </trkpt>
            <trkpt lon="100.984472" lat="12.845130">
                <ele>53.490479</ele>
                <time>2012-12-15T09:04:06Z</time>
            </trkpt>
            <trkpt lon="100.985254" lat="12.845201">
                <ele>53.971191</ele>
                <time>2012-12-15T09:04:36Z</time>
            </trkpt>
            <trkpt lon="100.985971" lat="12.845457">
                <ele>54.932373</ele>
                <time>2012-12-15T09:05:06Z</time>
            </trkpt>
            <trkpt lon="100.987030" lat="12.846099">
                <ele>58.777710</ele>
                <time>2012-12-15T09:05:36Z</time>
            </trkpt>
            <trkpt lon="100.988160" lat="12.846770">
                <ele>60.219727</ele>
                <time>2012-12-15T09:06:06Z</time>
            </trkpt>
            <trkpt lon="100.989123" lat="12.847880">
                <ele>61.181030</ele>
                <time>2012-12-15T09:06:36Z</time>
            </trkpt>
            <trkpt lon="100.989847" lat="12.849098">
                <ele>60.700317</ele>
                <time>2012-12-15T09:07:06Z</time>
            </trkpt>
            <trkpt lon="100.990850" lat="12.849455">
                <ele>66.468262</ele>
                <time>2012-12-15T09:07:36Z</time>
            </trkpt>
            <trkpt lon="100.991201" lat="12.849522">
                <ele>65.507080</ele>
                <time>2012-12-15T09:08:06Z</time>
            </trkpt>
            <trkpt lon="100.991608" lat="12.849634">
                <ele>65.507080</ele>
                <time>2012-12-15T09:08:36Z</time>
            </trkpt>
            <trkpt lon="100.991873" lat="12.849788">
                <ele>65.987671</ele>
                <time>2012-12-15T09:09:06Z</time>
            </trkpt>
            <trkpt lon="100.992227" lat="12.849993">
                <ele>64.065063</ele>
                <time>2012-12-15T09:09:36Z</time>
            </trkpt>
            <trkpt lon="100.992550" lat="12.850198">
                <ele>64.065063</ele>
                <time>2012-12-15T09:10:06Z</time>
            </trkpt>
            <trkpt lon="100.992808" lat="12.850313">
                <ele>64.545654</ele>
                <time>2012-12-15T09:10:36Z</time>
            </trkpt>
            <trkpt lon="100.992937" lat="12.850227">
                <ele>65.507080</ele>
                <time>2012-12-15T09:11:06Z</time>
            </trkpt>
            <trkpt lon="100.993052" lat="12.849998">
                <ele>65.507080</ele>
                <time>2012-12-15T09:11:36Z</time>
            </trkpt>
            <trkpt lon="100.994202" lat="12.850279">
                <ele>65.026367</ele>
                <time>2012-12-15T09:12:06Z</time>
            </trkpt>
            <trkpt lon="100.994826" lat="12.850271">
                <ele>65.507080</ele>
                <time>2012-12-15T09:12:36Z</time>
            </trkpt>
            <trkpt lon="100.995503" lat="12.850357">
                <ele>69.352295</ele>
                <time>2012-12-15T09:13:06Z</time>
            </trkpt>
            <trkpt lon="100.996280" lat="12.850438">
                <ele>66.948975</ele>
                <time>2012-12-15T09:13:36Z</time>
            </trkpt>
            <trkpt lon="100.997087" lat="12.850607">
                <ele>71.274902</ele>
                <time>2012-12-15T09:14:06Z</time>
            </trkpt>
            <trkpt lon="100.997938" lat="12.850877">
                <ele>72.236206</ele>
                <time>2012-12-15T09:14:36Z</time>
            </trkpt>
            <trkpt lon="100.998244" lat="12.851273">
                <ele>75.120239</ele>
                <time>2012-12-15T09:15:06Z</time>
            </trkpt>
            <trkpt lon="100.998474" lat="12.851593">
                <ele>76.081421</ele>
                <time>2012-12-15T09:15:36Z</time>
            </trkpt>
            <trkpt lon="100.998742" lat="12.851866">
                <ele>76.562134</ele>
                <time>2012-12-15T09:16:06Z</time>
            </trkpt>
            <trkpt lon="100.998992" lat="12.852140">
                <ele>77.523438</ele>
                <time>2012-12-15T09:16:36Z</time>
            </trkpt>
            <trkpt lon="100.999650" lat="12.852522">
                <ele>78.965454</ele>
                <time>2012-12-15T09:17:06Z</time>
            </trkpt>
            <trkpt lon="101.000590" lat="12.852938">
                <ele>79.446045</ele>
                <time>2012-12-15T09:17:36Z</time>
            </trkpt>
            <trkpt lon="101.000871" lat="12.853280">
                <ele>73.197632</ele>
                <time>2012-12-15T09:18:06Z</time>
            </trkpt>
            <trkpt lon="101.001178" lat="12.853522">
                <ele>75.600830</ele>
                <time>2012-12-15T09:18:36Z</time>
            </trkpt>
            <trkpt lon="101.002192" lat="12.853844">
                <ele>68.390869</ele>
                <time>2012-12-15T09:19:06Z</time>
            </trkpt>
            <trkpt lon="101.002832" lat="12.854285">
                <ele>68.390869</ele>
                <time>2012-12-15T09:19:36Z</time>
            </trkpt>
            <trkpt lon="101.002860" lat="12.854553">
                <ele>70.794190</ele>
                <time>2012-12-15T09:20:06Z</time>
            </trkpt>
            <trkpt lon="101.002353" lat="12.855117">
                <ele>68.871582</ele>
                <time>2012-12-15T09:20:36Z</time>
            </trkpt>
            <trkpt lon="101.001668" lat="12.855470">
                <ele>71.274902</ele>
                <time>2012-12-15T09:21:06Z</time>
            </trkpt>
            <trkpt lon="101.000486" lat="12.855631">
                <ele>68.871582</ele>
                <time>2012-12-15T09:21:36Z</time>
            </trkpt>
            <trkpt lon="100.999101" lat="12.855479">
                <ele>70.794190</ele>
                <time>2012-12-15T09:22:06Z</time>
            </trkpt>
            <trkpt lon="100.997701" lat="12.855960">
                <ele>66.468262</ele>
                <time>2012-12-15T09:22:36Z</time>
            </trkpt>
            <trkpt lon="100.996654" lat="12.856691">
                <ele>61.181030</ele>
                <time>2012-12-15T09:23:06Z</time>
            </trkpt>
            <trkpt lon="100.995910" lat="12.856870">
                <ele>58.777710</ele>
                <time>2012-12-15T09:23:36Z</time>
            </trkpt>
            <trkpt lon="100.995499" lat="12.856847">
                <ele>60.219727</ele>
                <time>2012-12-15T09:24:06Z</time>
            </trkpt>
            <trkpt lon="100.994852" lat="12.856899">
                <ele>60.700317</ele>
                <time>2012-12-15T09:24:36Z</time>
            </trkpt>
            <trkpt lon="100.994464" lat="12.857045">
                <ele>59.739136</ele>
                <time>2012-12-15T09:25:06Z</time>
            </trkpt>
            <trkpt lon="100.993852" lat="12.857527">
                <ele>58.777710</ele>
                <time>2012-12-15T09:25:36Z</time>
            </trkpt>
            <trkpt lon="100.993630" lat="12.858064">
                <ele>56.855103</ele>
                <time>2012-12-15T09:26:06Z</time>
            </trkpt>
            <trkpt lon="100.993392" lat="12.859061">
                <ele>60.219727</ele>
                <time>2012-12-15T09:26:36Z</time>
            </trkpt>
            <trkpt lon="100.993050" lat="12.859733">
                <ele>55.893799</ele>
                <time>2012-12-15T09:27:06Z</time>
            </trkpt>
            <trkpt lon="100.992670" lat="12.859661">
                <ele>54.932373</ele>
                <time>2012-12-15T09:27:36Z</time>
            </trkpt>
            <trkpt lon="100.991784" lat="12.859918">
                <ele>54.451782</ele>
                <time>2012-12-15T09:28:06Z</time>
            </trkpt>
            <trkpt lon="100.990732" lat="12.859906">
                <ele>54.932373</ele>
                <time>2012-12-15T09:28:36Z</time>
            </trkpt>
            <trkpt lon="100.990277" lat="12.859846">
                <ele>52.529175</ele>
                <time>2012-12-15T09:29:06Z</time>
            </trkpt>
            <trkpt lon="100.989636" lat="12.859740">
                <ele>51.567871</ele>
                <time>2012-12-15T09:29:36Z</time>
            </trkpt>
            <trkpt lon="100.988360" lat="12.859737">
                <ele>51.087158</ele>
                <time>2012-12-15T09:30:06Z</time>
            </trkpt>
            <trkpt lon="100.987161" lat="12.859823">
                <ele>49.645264</ele>
                <time>2012-12-15T09:30:36Z</time>
            </trkpt>
            <trkpt lon="100.985758" lat="12.859700">
                <ele>49.164551</ele>
                <time>2012-12-15T09:31:06Z</time>
            </trkpt>
            <trkpt lon="100.984795" lat="12.859538">
                <ele>45.799927</ele>
                <time>2012-12-15T09:31:36Z</time>
            </trkpt>
            <trkpt lon="100.984045" lat="12.859923">
                <ele>44.358032</ele>
                <time>2012-12-15T09:32:06Z</time>
            </trkpt>
            <trkpt lon="100.982862" lat="12.859984">
                <ele>44.358032</ele>
                <time>2012-12-15T09:32:36Z</time>
            </trkpt>
            <trkpt lon="100.981477" lat="12.860304">
                <ele>43.877319</ele>
                <time>2012-12-15T09:33:06Z</time>
            </trkpt>
            <trkpt lon="100.979899" lat="12.860397">
                <ele>41.473999</ele>
                <time>2012-12-15T09:33:36Z</time>
            </trkpt>
            <trkpt lon="100.978424" lat="12.860576">
                <ele>41.473999</ele>
                <time>2012-12-15T09:34:06Z</time>
            </trkpt>
            <trkpt lon="100.977015" lat="12.860015">
                <ele>36.667481</ele>
                <time>2012-12-15T09:34:36Z</time>
            </trkpt>
            <trkpt lon="100.975696" lat="12.860669">
                <ele>36.186768</ele>
                <time>2012-12-15T09:35:06Z</time>
            </trkpt>
            <trkpt lon="100.974759" lat="12.861087">
                <ele>37.148071</ele>
                <time>2012-12-15T09:35:36Z</time>
            </trkpt>
            <trkpt lon="100.973949" lat="12.862206">
                <ele>39.070679</ele>
                <time>2012-12-15T09:36:06Z</time>
            </trkpt>
            <trkpt lon="100.972744" lat="12.862475">
                <ele>36.186768</ele>
                <time>2012-12-15T09:36:36Z</time>
            </trkpt>
            <trkpt lon="100.971248" lat="12.862691">
                <ele>33.783447</ele>
                <time>2012-12-15T09:37:06Z</time>
            </trkpt>
            <trkpt lon="100.969598" lat="12.862955">
                <ele>33.302856</ele>
                <time>2012-12-15T09:37:36Z</time>
            </trkpt>
            <trkpt lon="100.967955" lat="12.863117">
                <ele>33.783447</ele>
                <time>2012-12-15T09:38:06Z</time>
            </trkpt>
            <trkpt lon="100.966820" lat="12.863237">
                <ele>32.822266</ele>
                <time>2012-12-15T09:38:36Z</time>
            </trkpt>
            <trkpt lon="100.966792" lat="12.863195">
                <ele>32.822266</ele>
                <time>2012-12-15T09:39:06Z</time>
            </trkpt>
            <trkpt lon="100.966582" lat="12.863452">
                <ele>29.938110</ele>
                <time>2012-12-15T09:39:36Z</time>
            </trkpt>
            <trkpt lon="100.966200" lat="12.863991">
                <ele>30.899536</ele>
                <time>2012-12-15T09:40:06Z</time>
            </trkpt>
            <trkpt lon="100.966346" lat="12.864759">
                <ele>30.418823</ele>
                <time>2012-12-15T09:40:36Z</time>
            </trkpt>
            <trkpt lon="100.965894" lat="12.864736">
                <ele>30.899536</ele>
                <time>2012-12-15T09:41:06Z</time>
            </trkpt>
            <trkpt lon="100.964106" lat="12.864439">
                <ele>30.418823</ele>
                <time>2012-12-15T09:41:36Z</time>
            </trkpt>
            <trkpt lon="100.962332" lat="12.863879">
                <ele>27.534912</ele>
                <time>2012-12-15T09:42:06Z</time>
            </trkpt>
            <trkpt lon="100.960627" lat="12.862977">
                <ele>29.457520</ele>
                <time>2012-12-15T09:42:36Z</time>
            </trkpt>
            <trkpt lon="100.958809" lat="12.862516">
                <ele>26.573608</ele>
                <time>2012-12-15T09:43:06Z</time>
            </trkpt>
            <trkpt lon="100.957066" lat="12.862307">
                <ele>24.651001</ele>
                <time>2012-12-15T09:43:36Z</time>
            </trkpt>
            <trkpt lon="100.955445" lat="12.861700">
                <ele>25.612305</ele>
                <time>2012-12-15T09:44:06Z</time>
            </trkpt>
            <trkpt lon="100.954031" lat="12.861430">
                <ele>24.651001</ele>
                <time>2012-12-15T09:44:36Z</time>
            </trkpt>
            <trkpt lon="100.953760" lat="12.862632">
                <ele>24.170288</ele>
                <time>2012-12-15T09:45:06Z</time>
            </trkpt>
            <trkpt lon="100.953495" lat="12.862636">
                <ele>24.170288</ele>
                <time>2012-12-15T09:45:36Z</time>
            </trkpt>
            <trkpt lon="100.953487" lat="12.862623">
                <ele>22.728272</ele>
                <time>2012-12-15T09:46:06Z</time>
            </trkpt>
            <trkpt lon="100.953438" lat="12.862607">
                <ele>24.651001</ele>
                <time>2012-12-15T09:46:36Z</time>
            </trkpt>
            <trkpt lon="100.953422" lat="12.862604">
                <ele>29.938110</ele>
                <time>2012-12-15T09:47:06Z</time>
            </trkpt>
            <trkpt lon="100.953392" lat="12.862605">
                <ele>28.015503</ele>
                <time>2012-12-15T09:47:36Z</time>
            </trkpt>
            <trkpt lon="100.953448" lat="12.862567">
                <ele>29.938110</ele>
                <time>2012-12-15T09:48:06Z</time>
            </trkpt>
            <trkpt lon="100.953406" lat="12.862377">
                <ele>31.380127</ele>
                <time>2012-12-15T09:49:06Z</time>
            </trkpt>
            <trkpt lon="100.953385" lat="12.862398">
                <ele>31.380127</ele>
                <time>2012-12-15T09:50:06Z</time>
            </trkpt>
            <trkpt lon="100.953654" lat="12.862632">
                <ele>22.247559</ele>
                <time>2012-12-15T09:52:36Z</time>
            </trkpt>
            <trkpt lon="100.953609" lat="12.862553">
                <ele>24.170288</ele>
                <time>2012-12-15T09:53:36Z</time>
            </trkpt>
            <trkpt lon="100.953591" lat="12.862523">
                <ele>29.457520</ele>
                <time>2012-12-15T09:54:36Z</time>
            </trkpt>
            <trkpt lon="100.953588" lat="12.862509">
                <ele>29.938110</ele>
                <time>2012-12-15T09:55:06Z</time>
            </trkpt>
            <trkpt lon="100.953568" lat="12.862534">
                <ele>28.976929</ele>
                <time>2012-12-15T09:56:06Z</time>
            </trkpt>
            <trkpt lon="100.953556" lat="12.862531">
                <ele>26.092896</ele>
                <time>2012-12-15T09:56:36Z</time>
            </trkpt>
            <trkpt lon="100.953556" lat="12.862540">
                <ele>24.651001</ele>
                <time>2012-12-15T09:57:06Z</time>
            </trkpt>
            <trkpt lon="100.953551" lat="12.862570">
                <ele>23.208984</ele>
                <time>2012-12-15T09:58:06Z</time>
            </trkpt>
            <trkpt lon="100.953545" lat="12.862625">
                <ele>21.766968</ele>
                <time>2012-12-15T09:58:36Z</time>
            </trkpt>
            <trkpt lon="100.953541" lat="12.862694">
                <ele>25.612305</ele>
                <time>2012-12-15T09:59:06Z</time>
            </trkpt>
            <trkpt lon="100.953539" lat="12.862646">
                <ele>20.805664</ele>
                <time>2012-12-15T09:59:36Z</time>
            </trkpt>
            <trkpt lon="100.953530" lat="12.862659">
                <ele>28.496216</ele>
                <time>2012-12-15T10:00:06Z</time>
            </trkpt>
            <trkpt lon="100.953527" lat="12.862653">
                <ele>28.496216</ele>
                <time>2012-12-15T10:00:36Z</time>
            </trkpt>
            <trkpt lon="100.953527" lat="12.862650">
                <ele>28.496216</ele>
                <time>2012-12-15T10:01:06Z</time>
            </trkpt>
            <trkpt lon="100.953532" lat="12.862688">
                <ele>29.457520</ele>
                <time>2012-12-15T10:01:36Z</time>
            </trkpt>
            <trkpt lon="100.953549" lat="12.862669">
                <ele>31.380127</ele>
                <time>2012-12-15T10:02:06Z</time>
            </trkpt>
            <trkpt lon="100.953556" lat="12.862657">
                <ele>41.954712</ele>
                <time>2012-12-15T10:02:36Z</time>
            </trkpt>
            <trkpt lon="100.953551" lat="12.862663">
                <ele>39.070679</ele>
                <time>2012-12-15T10:03:06Z</time>
            </trkpt>
            <trkpt lon="100.953546" lat="12.862689">
                <ele>20.324951</ele>
                <time>2012-12-15T10:04:06Z</time>
            </trkpt>
            <trkpt lon="100.953548" lat="12.862693">
                <ele>9.269898</ele>
                <time>2012-12-15T10:04:36Z</time>
            </trkpt>
            <trkpt lon="100.953551" lat="12.862691">
                <ele>15.518433</ele>
                <time>2012-12-15T10:05:06Z</time>
            </trkpt>
            <trkpt lon="100.953532" lat="12.862634">
                <ele>20.805664</ele>
                <time>2012-12-15T10:05:36Z</time>
            </trkpt>
            <trkpt lon="100.953582" lat="12.862621">
                <ele>23.689575</ele>
                <time>2012-12-15T10:06:06Z</time>
            </trkpt>
        </trkseg>
    </trk>
</gpx>